Forside
METAR-TAF:

METAR-TAF

Lufthavne :

Tri-County Regional Airport

Lone Rock, Wisconsin, USA

Breddekreds: 43-12-43N, længdekreds: 090-10-53W, højde: 219 m

Aktuelle vejr

Denne rapport blev lavet for 19 minutter siden, kl. 09:56 UTC
Vind 9 kt fra nordnordvest
Temperatur 8°C
Fugtighed 87%
Tryk 1016 hPa
Sigt: 16.1 km
Overskyet i en højde af 1300 ft

METAR: KLNR 230956Z AUTO 34009KT 10SM OVC013 08/06 A2999 RMK AO2 SLP149 T00780056

Tid: 05:15 (10:15 UTC)


TAF: fraværende

Vejrobservationer og prognoser fra mere end 4000 lufthavne (METAR og TAF).

De gule og røde prikker repræsenterer de meteorologiske stationer.

Flyt musen over at se navnet på stationen.

Så klik over at se vejr observationer og prognoser.

At skifte det kort: Klik på de grønne knapper med et sort kors for at zoome ind; på den grønne knap med en bindestreg for at zoome ud; eller på de grønne pile for tilstødende kort.


METAR-TAF: